sensor_id;sensor_type;location;lat;lon;timestamp;pressure;altitude;pressure_sealevel;temperature;humidity
76611;BME280;65503;48.534;9.062;2023-12-22T00:00:56;95791.00;;;8.12;75.90
76611;BME280;65503;48.534;9.062;2023-12-22T00:03:23;95792.16;;;8.21;75.39
76611;BME280;65503;48.534;9.062;2023-12-22T00:05:49;95801.22;;;8.31;75.41
76611;BME280;65503;48.534;9.062;2023-12-22T00:08:16;95795.97;;;8.31;74.35
76611;BME280;65503;48.534;9.062;2023-12-22T00:10:42;95785.31;;;8.20;73.94
76611;BME280;65503;48.534;9.062;2023-12-22T00:13:09;95785.56;;;7.97;74.74
76611;BME280;65503;48.534;9.062;2023-12-22T00:15:35;95798.63;;;8.14;74.92
76611;BME280;65503;48.534;9.062;2023-12-22T00:18:02;95804.66;;;8.31;74.13
76611;BME280;65503;48.534;9.062;2023-12-22T00:20:29;95810.66;;;8.53;73.07
76611;BME280;65503;48.534;9.062;2023-12-22T00:22:55;95808.34;;;8.57;73.06
76611;BME280;65503;48.534;9.062;2023-12-22T00:25:21;95806.69;;;8.51;73.63
76611;BME280;65503;48.534;9.062;2023-12-22T00:27:48;95823.56;;;8.38;73.55
76611;BME280;65503;48.534;9.062;2023-12-22T00:30:15;95814.09;;;8.15;73.61
76611;BME280;65503;48.534;9.062;2023-12-22T00:32:41;95829.81;;;8.15;73.00
76611;BME280;65503;48.534;9.062;2023-12-22T00:35:08;95831.72;;;8.03;73.28
76611;BME280;65503;48.534;9.062;2023-12-22T00:37:35;95829.81;;;8.15;72.56
76611;BME280;65503;48.534;9.062;2023-12-22T00:40:02;95833.25;;;8.38;72.56
76611;BME280;65503;48.534;9.062;2023-12-22T00:42:33;95829.72;;;8.49;70.96
76611;BME280;65503;48.534;9.062;2023-12-22T00:44:59;95832.91;;;8.51;71.17
76611;BME280;65503;48.534;9.062;2023-12-22T00:47:26;95828.09;;;8.04;71.68
76611;BME280;65503;48.534;9.062;2023-12-22T00:49:52;95822.16;;;7.92;72.44
76611;BME280;65503;48.534;9.062;2023-12-22T00:52:19;95794.16;;;8.53;70.80
76611;BME280;65503;48.534;9.062;2023-12-22T00:54:45;95796.97;;;8.29;70.66
76611;BME280;65503;48.534;9.062;2023-12-22T00:57:12;95788.09;;;7.92;72.19
76611;BME280;65503;48.534;9.062;2023-12-22T00:59:39;95790.44;;;8.10;70.58
76611;BME280;65503;48.534;9.062;2023-12-22T01:02:11;95802.53;;;8.55;70.80
76611;BME280;65503;48.534;9.062;2023-12-22T01:04:38;95820.47;;;8.63;69.34
76611;BME280;65503;48.534;9.062;2023-12-22T01:07:07;95807.94;;;8.26;70.27
76611;BME280;65503;48.534;9.062;2023-12-22T01:09:34;95806.22;;;8.54;69.24
76611;BME280;65503;48.534;9.062;2023-12-22T01:12:01;95810.44;;;8.16;70.66
76611;BME280;65503;48.534;9.062;2023-12-22T01:14:31;95812.88;;;8.01;72.58
76611;BME280;65503;48.534;9.062;2023-12-22T01:16:58;95819.63;;;8.36;71.91
76611;BME280;65503;48.534;9.062;2023-12-22T01:19:27;95836.47;;;8.23;72.37
76611;BME280;65503;48.534;9.062;2023-12-22T01:21:54;95824.09;;;7.63;72.51
76611;BME280;65503;48.534;9.062;2023-12-22T01:24:20;95826.38;;;7.26;74.54
76611;BME280;65503;48.534;9.062;2023-12-22T01:26:47;95834.03;;;7.44;75.17
76611;BME280;65503;48.534;9.062;2023-12-22T01:29:13;95849.16;;;7.42;75.83
76611;BME280;65503;48.534;9.062;2023-12-22T01:31:39;95855.41;;;7.75;75.53
76611;BME280;65503;48.534;9.062;2023-12-22T01:34:06;95851.38;;;7.34;75.48
76611;BME280;65503;48.534;9.062;2023-12-22T01:36:34;95858.38;;;7.00;78.46
76611;BME280;65503;48.534;9.062;2023-12-22T01:39:00;95838.84;;;6.91;78.76
76611;BME280;65503;48.534;9.062;2023-12-22T01:41:27;95864.63;;;6.71;78.55
76611;BME280;65503;48.534;9.062;2023-12-22T01:43:53;95852.88;;;6.73;78.53
76611;BME280;65503;48.534;9.062;2023-12-22T01:46:20;95870.88;;;6.70;78.56
76611;BME280;65503;48.534;9.062;2023-12-22T01:48:47;95848.38;;;6.97;77.39
76611;BME280;65503;48.534;9.062;2023-12-22T01:51:14;95828.16;;;6.01;78.48
76611;BME280;65503;48.534;9.062;2023-12-22T01:53:40;95842.19;;;6.46;77.16
76611;BME280;65503;48.534;9.062;2023-12-22T01:56:07;95841.25;;;6.52;77.47
76611;BME280;65503;48.534;9.062;2023-12-22T01:58:36;95864.59;;;6.19;77.55
76611;BME280;65503;48.534;9.062;2023-12-22T02:01:03;95854.66;;;6.44;77.50
76611;BME280;65503;48.534;9.062;2023-12-22T02:03:30;95856.84;;;6.36;77.27
76611;BME280;65503;48.534;9.062;2023-12-22T02:05:57;95859.41;;;6.99;74.85
76611;BME280;65503;48.534;9.062;2023-12-22T02:08:25;95867.34;;;7.04;73.59
76611;BME280;65503;48.534;9.062;2023-12-22T02:10:53;95876.09;;;6.98;74.05
76611;BME280;65503;48.534;9.062;2023-12-22T02:13:19;95881.28;;;6.81;73.48
76611;BME280;65503;48.534;9.062;2023-12-22T02:15:47;95865.81;;;7.08;74.12
76611;BME280;65503;48.534;9.062;2023-12-22T02:18:19;95862.06;;;7.32;72.99
76611;BME280;65503;48.534;9.062;2023-12-22T02:20:48;95847.31;;;7.26;73.21
76611;BME280;65503;48.534;9.062;2023-12-22T02:23:15;95852.06;;;7.29;72.72
76611;BME280;65503;48.534;9.062;2023-12-22T02:25:41;95853.31;;;7.10;73.13
76611;BME280;65503;48.534;9.062;2023-12-22T02:28:10;95858.25;;;7.23;73.02
76611;BME280;65503;48.534;9.062;2023-12-22T02:30:45;95876.22;;;7.65;72.54
76611;BME280;65503;48.534;9.062;2023-12-22T02:33:15;95861.94;;;7.56;71.94
76611;BME280;65503;48.534;9.062;2023-12-22T02:35:42;95867.75;;;7.29;72.06
76611;BME280;65503;48.534;9.062;2023-12-22T02:38:12;95884.13;;;7.36;72.53
76611;BME280;65503;48.534;9.062;2023-12-22T02:40:39;95881.13;;;7.78;71.27
76611;BME280;65503;48.534;9.062;2023-12-22T02:43:06;95889.56;;;7.80;70.92
76611;BME280;65503;48.534;9.062;2023-12-22T02:45:33;95897.31;;;7.75;72.31
76611;BME280;65503;48.534;9.062;2023-12-22T02:48:00;95899.06;;;7.86;70.56
76611;BME280;65503;48.534;9.062;2023-12-22T02:50:27;95901.28;;;7.94;70.48
76611;BME280;65503;48.534;9.062;2023-12-22T02:52:53;95899.53;;;8.16;71.00
76611;BME280;65503;48.534;9.062;2023-12-22T02:55:20;95893.81;;;8.36;68.23
76611;BME280;65503;48.534;9.062;2023-12-22T02:57:46;95893.81;;;8.36;69.71
76611;BME280;65503;48.534;9.062;2023-12-22T03:00:13;95903.94;;;8.49;68.70
76611;BME280;65503;48.534;9.062;2023-12-22T03:02:40;95906.06;;;8.31;69.21
76611;BME280;65503;48.534;9.062;2023-12-22T03:05:06;95885.44;;;7.84;71.34
76611;BME280;65503;48.534;9.062;2023-12-22T03:07:36;95890.34;;;7.19;73.73
76611;BME280;65503;48.534;9.062;2023-12-22T03:10:02;95908.22;;;6.82;73.99
76611;BME280;65503;48.534;9.062;2023-12-22T03:12:29;95915.75;;;6.67;74.48
76611;BME280;65503;48.534;9.062;2023-12-22T03:14:56;95906.16;;;6.84;73.82
76611;BME280;65503;48.534;9.062;2023-12-22T03:17:22;95892.72;;;6.92;73.54
76611;BME280;65503;48.534;9.062;2023-12-22T03:19:48;95903.91;;;6.76;74.08
76611;BME280;65503;48.534;9.062;2023-12-22T03:22:15;95897.69;;;6.65;74.22
76611;BME280;65503;48.534;9.062;2023-12-22T03:24:41;95893.34;;;6.19;75.15
76611;BME280;65503;48.534;9.062;2023-12-22T03:27:08;95892.66;;;6.12;75.59
76611;BME280;65503;48.534;9.062;2023-12-22T03:29:34;95885.91;;;6.39;74.52
76611;BME280;65503;48.534;9.062;2023-12-22T03:32:01;95886.19;;;6.78;73.53
76611;BME280;65503;48.534;9.062;2023-12-22T03:34:27;95899.91;;;7.13;72.24
76611;BME280;65503;48.534;9.062;2023-12-22T03:36:54;95878.53;;;7.16;71.28
76611;BME280;65503;48.534;9.062;2023-12-22T03:39:20;95875.25;;;7.09;72.17
76611;BME280;65503;48.534;9.062;2023-12-22T03:41:47;95881.69;;;7.18;71.41
76611;BME280;65503;48.534;9.062;2023-12-22T03:44:13;95881.19;;;7.50;70.23
76611;BME280;65503;48.534;9.062;2023-12-22T03:46:40;95886.81;;;7.41;70.46
76611;BME280;65503;48.534;9.062;2023-12-22T03:49:06;95885.00;;;7.59;69.57
76611;BME280;65503;48.534;9.062;2023-12-22T03:51:33;95889.78;;;7.62;69.45
76611;BME280;65503;48.534;9.062;2023-12-22T03:53:59;95896.69;;;7.84;68.99
76611;BME280;65503;48.534;9.062;2023-12-22T03:56:26;95885.56;;;7.77;68.21
76611;BME280;65503;48.534;9.062;2023-12-22T03:58:52;95904.91;;;8.26;67.93
76611;BME280;65503;48.534;9.062;2023-12-22T04:01:19;95887.22;;;8.34;66.79
76611;BME280;65503;48.534;9.062;2023-12-22T04:03:45;95894.31;;;8.55;66.88
76611;BME280;65503;48.534;9.062;2023-12-22T04:06:12;95883.47;;;8.29;67.40
76611;BME280;65503;48.534;9.062;2023-12-22T04:08:39;95888.31;;;8.38;67.31
76611;BME280;65503;48.534;9.062;2023-12-22T04:11:05;95881.00;;;8.40;66.09
76611;BME280;65503;48.534;9.062;2023-12-22T04:13:32;95890.13;;;8.54;65.75
76611;BME280;65503;48.534;9.062;2023-12-22T04:15:58;95899.84;;;8.37;65.62
76611;BME280;65503;48.534;9.062;2023-12-22T04:18:25;95886.75;;;8.20;66.68
76611;BME280;65503;48.534;9.062;2023-12-22T04:20:51;95896.63;;;8.51;65.66
76611;BME280;65503;48.534;9.062;2023-12-22T04:23:20;95910.16;;;7.93;66.54
76611;BME280;65503;48.534;9.062;2023-12-22T04:25:46;95928.91;;;8.18;65.92
76611;BME280;65503;48.534;9.062;2023-12-22T04:28:13;95919.38;;;8.12;65.65
76611;BME280;65503;48.534;9.062;2023-12-22T04:30:39;95889.00;;;8.50;65.16
76611;BME280;65503;48.534;9.062;2023-12-22T04:33:06;95900.19;;;7.73;66.67
76611;BME280;65503;48.534;9.062;2023-12-22T04:35:32;95927.41;;;7.89;67.54
76611;BME280;65503;48.534;9.062;2023-12-22T04:37:59;95918.25;;;7.75;68.67
76611;BME280;65503;48.534;9.062;2023-12-22T04:40:25;95922.16;;;8.06;69.40
76611;BME280;65503;48.534;9.062;2023-12-22T04:42:54;95941.28;;;7.89;69.34
76611;BME280;65503;48.534;9.062;2023-12-22T04:45:21;95941.56;;;7.60;71.31
76611;BME280;65503;48.534;9.062;2023-12-22T04:47:47;95940.06;;;7.64;71.49
76611;BME280;65503;48.534;9.062;2023-12-22T04:50:14;95942.25;;;7.83;71.42
76611;BME280;65503;48.534;9.062;2023-12-22T04:52:41;95932.06;;;7.87;70.87
76611;BME280;65503;48.534;9.062;2023-12-22T04:55:07;95940.78;;;7.59;72.31
76611;BME280;65503;48.534;9.062;2023-12-22T04:57:34;95935.91;;;7.34;73.09
76611;BME280;65503;48.534;9.062;2023-12-22T05:00:01;95942.06;;;7.28;73.84
76611;BME280;65503;48.534;9.062;2023-12-22T05:02:27;95949.81;;;7.52;72.86
76611;BME280;65503;48.534;9.062;2023-12-22T05:04:55;95953.03;;;7.14;73.16
76611;BME280;65503;48.534;9.062;2023-12-22T05:07:22;95936.75;;;7.23;74.09
76611;BME280;65503;48.534;9.062;2023-12-22T05:09:48;95943.00;;;7.22;72.31
76611;BME280;65503;48.534;9.062;2023-12-22T05:12:14;95951.91;;;7.83;71.06
76611;BME280;65503;48.534;9.062;2023-12-22T05:14:41;95949.22;;;8.11;68.02
76611;BME280;65503;48.534;9.062;2023-12-22T05:17:07;95950.81;;;8.12;67.08
76611;BME280;65503;48.534;9.062;2023-12-22T05:19:34;95954.78;;;8.32;67.32
76611;BME280;65503;48.534;9.062;2023-12-22T05:22:00;95951.47;;;8.19;66.72
76611;BME280;65503;48.534;9.062;2023-12-22T05:24:27;95942.41;;;8.10;66.12
76611;BME280;65503;48.534;9.062;2023-12-22T05:26:53;95946.84;;;8.43;66.23
76611;BME280;65503;48.534;9.062;2023-12-22T05:29:20;95958.59;;;8.57;64.11
76611;BME280;65503;48.534;9.062;2023-12-22T05:31:46;95955.72;;;8.59;64.75
76611;BME280;65503;48.534;9.062;2023-12-22T05:34:13;95957.78;;;8.57;66.25
76611;BME280;65503;48.534;9.062;2023-12-22T05:36:39;95946.94;;;8.32;64.61
76611;BME280;65503;48.534;9.062;2023-12-22T05:39:06;95955.25;;;7.95;65.69
76611;BME280;65503;48.534;9.062;2023-12-22T05:41:35;95968.13;;;7.97;65.93
76611;BME280;65503;48.534;9.062;2023-12-22T05:44:05;95959.84;;;8.21;66.40
76611;BME280;65503;48.534;9.062;2023-12-22T05:46:36;95963.03;;;8.07;65.90
76611;BME280;65503;48.534;9.062;2023-12-22T05:49:04;95967.09;;;8.48;64.07
76611;BME280;65503;48.534;9.062;2023-12-22T05:51:40;95945.91;;;8.33;63.63
76611;BME280;65503;48.534;9.062;2023-12-22T05:54:07;95974.56;;;8.22;64.24
76611;BME280;65503;48.534;9.062;2023-12-22T05:56:34;95985.19;;;8.49;63.74
76611;BME280;65503;48.534;9.062;2023-12-22T05:59:01;95993.06;;;8.33;64.44
76611;BME280;65503;48.534;9.062;2023-12-22T06:01:27;95988.00;;;8.43;63.70
76611;BME280;65503;48.534;9.062;2023-12-22T06:03:54;95976.31;;;8.17;64.55
76611;BME280;65503;48.534;9.062;2023-12-22T06:06:21;95977.81;;;8.13;65.95
76611;BME280;65503;48.534;9.062;2023-12-22T06:08:48;95989.22;;;7.90;65.19
76611;BME280;65503;48.534;9.062;2023-12-22T06:11:14;95988.28;;;8.13;65.67
76611;BME280;65503;48.534;9.062;2023-12-22T06:13:41;96003.19;;;8.79;63.78
76611;BME280;65503;48.534;9.062;2023-12-22T06:16:14;96010.28;;;9.00;63.21
76611;BME280;65503;48.534;9.062;2023-12-22T06:18:42;96015.75;;;8.10;66.16
76611;BME280;65503;48.534;9.062;2023-12-22T06:21:09;96028.97;;;7.87;68.33
76611;BME280;65503;48.534;9.062;2023-12-22T06:23:36;96022.72;;;7.88;70.88
76611;BME280;65503;48.534;9.062;2023-12-22T06:26:09;96043.91;;;8.03;70.55
76611;BME280;65503;48.534;9.062;2023-12-22T06:28:37;96045.44;;;7.42;71.74
76611;BME280;65503;48.534;9.062;2023-12-22T06:31:06;96043.91;;;6.95;73.81
76611;BME280;65503;48.534;9.062;2023-12-22T06:33:33;96054.38;;;6.95;75.87
76611;BME280;65503;48.534;9.062;2023-12-22T06:35:59;96047.91;;;6.86;75.51
76611;BME280;65503;48.534;9.062;2023-12-22T06:38:26;96060.31;;;6.79;76.63
76611;BME280;65503;48.534;9.062;2023-12-22T06:40:52;96069.25;;;7.18;75.35
76611;BME280;65503;48.534;9.062;2023-12-22T06:43:19;96075.13;;;7.48;74.68
76611;BME280;65503;48.534;9.062;2023-12-22T06:45:45;96066.31;;;7.66;73.86
76611;BME280;65503;48.534;9.062;2023-12-22T06:48:12;96071.44;;;7.61;73.06
76611;BME280;65503;48.534;9.062;2023-12-22T06:50:38;96086.78;;;7.69;73.02
76611;BME280;65503;48.534;9.062;2023-12-22T06:53:06;96081.63;;;7.45;72.72
76611;BME280;65503;48.534;9.062;2023-12-22T06:55:47;96078.97;;;7.57;71.50
76611;BME280;65503;48.534;9.062;2023-12-22T06:58:13;96083.50;;;7.62;70.42
76611;BME280;65503;48.534;9.062;2023-12-22T07:00:40;96086.38;;;7.48;72.27
76611;BME280;65503;48.534;9.062;2023-12-22T07:03:07;96067.97;;;7.43;69.90
76611;BME280;65503;48.534;9.062;2023-12-22T07:05:34;96056.00;;;7.47;70.43
76611;BME280;65503;48.534;9.062;2023-12-22T07:08:03;96048.53;;;7.68;68.41
76611;BME280;65503;48.534;9.062;2023-12-22T07:10:30;96049.91;;;7.30;69.02
76611;BME280;65503;48.534;9.062;2023-12-22T07:12:56;96066.44;;;6.96;69.89
76611;BME280;65503;48.534;9.062;2023-12-22T07:15:23;96059.53;;;7.41;69.17
76611;BME280;65503;48.534;9.062;2023-12-22T07:17:49;96066.97;;;7.73;68.25
76611;BME280;65503;48.534;9.062;2023-12-22T07:20:16;96067.41;;;7.70;68.74
76611;BME280;65503;48.534;9.062;2023-12-22T07:22:44;96094.16;;;7.72;66.70
76611;BME280;65503;48.534;9.062;2023-12-22T07:25:12;96088.41;;;7.46;67.58
76611;BME280;65503;48.534;9.062;2023-12-22T07:27:40;96083.53;;;7.90;67.02
76611;BME280;65503;48.534;9.062;2023-12-22T07:30:07;96085.66;;;7.93;66.39
76611;BME280;65503;48.534;9.062;2023-12-22T07:32:33;96084.09;;;8.09;65.57
76611;BME280;65503;48.534;9.062;2023-12-22T07:35:00;96082.50;;;7.91;65.56
76611;BME280;65503;48.534;9.062;2023-12-22T07:37:27;96081.88;;;7.72;66.36
76611;BME280;65503;48.534;9.062;2023-12-22T07:39:53;96106.41;;;7.55;68.01
76611;BME280;65503;48.534;9.062;2023-12-22T07:42:20;96099.06;;;7.80;67.52
76611;BME280;65503;48.534;9.062;2023-12-22T07:44:46;96099.78;;;7.92;66.26
76611;BME280;65503;48.534;9.062;2023-12-22T07:47:13;96080.75;;;7.68;67.65
76611;BME280;65503;48.534;9.062;2023-12-22T07:49:40;96085.84;;;7.75;66.78
76611;BME280;65503;48.534;9.062;2023-12-22T07:52:07;96094.19;;;7.60;68.56
76611;BME280;65503;48.534;9.062;2023-12-22T07:54:33;96088.13;;;7.31;69.34
76611;BME280;65503;48.534;9.062;2023-12-22T07:57:00;96073.19;;;7.43;68.90
76611;BME280;65503;48.534;9.062;2023-12-22T07:59:27;96087.09;;;7.32;69.79
76611;BME280;65503;48.534;9.062;2023-12-22T08:01:57;96094.88;;;7.67;69.13
76611;BME280;65503;48.534;9.062;2023-12-22T08:04:24;96085.44;;;7.55;68.99
76611;BME280;65503;48.534;9.062;2023-12-22T08:06:51;96086.06;;;7.85;67.96
76611;BME280;65503;48.534;9.062;2023-12-22T08:09:18;96082.66;;;8.29;67.39
76611;BME280;65503;48.534;9.062;2023-12-22T08:11:45;96089.03;;;8.34;66.99
76611;BME280;65503;48.534;9.062;2023-12-22T08:14:13;96103.34;;;8.43;66.40
76611;BME280;65503;48.534;9.062;2023-12-22T08:16:40;96114.22;;;8.35;66.94
76611;BME280;65503;48.534;9.062;2023-12-22T08:19:06;96102.50;;;8.25;67.19
76611;BME280;65503;48.534;9.062;2023-12-22T08:21:33;96073.50;;;7.87;67.25
76611;BME280;65503;48.534;9.062;2023-12-22T08:24:11;96076.72;;;7.49;68.75
76611;BME280;65503;48.534;9.062;2023-12-22T08:26:48;96101.22;;;7.71;68.94
76611;BME280;65503;48.534;9.062;2023-12-22T08:29:15;96093.66;;;7.86;67.85
76611;BME280;65503;48.534;9.062;2023-12-22T08:31:42;96086.50;;;8.10;67.85
76611;BME280;65503;48.534;9.062;2023-12-22T08:34:10;96105.97;;;8.14;66.67
76611;BME280;65503;48.534;9.062;2023-12-22T08:36:36;96100.09;;;7.67;68.79
76611;BME280;65503;48.534;9.062;2023-12-22T08:39:03;96098.09;;;7.86;69.15
76611;BME280;65503;48.534;9.062;2023-12-22T08:41:32;96101.38;;;7.93;67.81
76611;BME280;65503;48.534;9.062;2023-12-22T08:44:04;96088.94;;;8.00;67.86
76611;BME280;65503;48.534;9.062;2023-12-22T08:46:31;96101.31;;;8.05;66.96
76611;BME280;65503;48.534;9.062;2023-12-22T08:48:57;96101.19;;;8.11;66.39
76611;BME280;65503;48.534;9.062;2023-12-22T08:51:26;96117.94;;;8.39;65.62
76611;BME280;65503;48.534;9.062;2023-12-22T08:53:55;96120.19;;;7.90;67.54
76611;BME280;65503;48.534;9.062;2023-12-22T08:56:23;96115.63;;;7.57;70.08
76611;BME280;65503;48.534;9.062;2023-12-22T08:58:53;96107.31;;;7.48;70.60
76611;BME280;65503;48.534;9.062;2023-12-22T09:01:25;96117.25;;;7.75;70.76
76611;BME280;65503;48.534;9.062;2023-12-22T09:03:52;96125.28;;;7.57;70.80
76611;BME280;65503;48.534;9.062;2023-12-22T09:06:22;96125.06;;;7.46;72.84
76611;BME280;65503;48.534;9.062;2023-12-22T09:08:49;96139.16;;;7.69;71.69
76611;BME280;65503;48.534;9.062;2023-12-22T09:11:17;96137.09;;;7.71;71.83
76611;BME280;65503;48.534;9.062;2023-12-22T09:13:44;96138.19;;;7.75;72.33
76611;BME280;65503;48.534;9.062;2023-12-22T09:16:11;96136.31;;;8.27;70.72
76611;BME280;65503;48.534;9.062;2023-12-22T09:18:37;96138.09;;;7.70;72.40
76611;BME280;65503;48.534;9.062;2023-12-22T09:21:04;96144.97;;;7.99;71.51
76611;BME280;65503;48.534;9.062;2023-12-22T09:23:30;96146.09;;;8.03;71.41
76611;BME280;65503;48.534;9.062;2023-12-22T09:25:58;96153.03;;;8.38;71.09
76611;BME280;65503;48.534;9.062;2023-12-22T09:28:25;96163.94;;;8.18;70.63
76611;BME280;65503;48.534;9.062;2023-12-22T09:30:51;96157.94;;;7.54;74.07
76611;BME280;65503;48.534;9.062;2023-12-22T09:33:18;96165.81;;;7.42;74.45
76611;BME280;65503;48.534;9.062;2023-12-22T09:35:45;96153.91;;;7.12;74.67
76611;BME280;65503;48.534;9.062;2023-12-22T09:38:11;96154.22;;;6.92;75.33
76611;BME280;65503;48.534;9.062;2023-12-22T09:40:41;96151.50;;;7.33;74.39
76611;BME280;65503;48.534;9.062;2023-12-22T09:43:08;96165.59;;;7.56;74.27
76611;BME280;65503;48.534;9.062;2023-12-22T09:45:36;96158.06;;;7.47;73.48
76611;BME280;65503;48.534;9.062;2023-12-22T09:48:05;96172.50;;;7.73;72.85
76611;BME280;65503;48.534;9.062;2023-12-22T09:50:33;96170.00;;;7.67;73.35
76611;BME280;65503;48.534;9.062;2023-12-22T09:53:01;96169.00;;;8.08;71.84
76611;BME280;65503;48.534;9.062;2023-12-22T09:55:31;96184.84;;;8.01;70.57
76611;BME280;65503;48.534;9.062;2023-12-22T09:58:00;96175.47;;;8.05;70.08
76611;BME280;65503;48.534;9.062;2023-12-22T10:00:28;96180.41;;;8.42;69.54
76611;BME280;65503;48.534;9.062;2023-12-22T10:02:55;96160.50;;;8.74;69.18
76611;BME280;65503;48.534;9.062;2023-12-22T10:05:21;96173.66;;;8.46;69.66
76611;BME280;65503;48.534;9.062;2023-12-22T10:07:49;96168.69;;;8.21;70.09
76611;BME280;65503;48.534;9.062;2023-12-22T10:10:17;96170.53;;;8.49;68.97
76611;BME280;65503;48.534;9.062;2023-12-22T10:12:44;96153.69;;;8.45;68.94
76611;BME280;65503;48.534;9.062;2023-12-22T10:15:12;96150.31;;;8.04;70.06
76611;BME280;65503;48.534;9.062;2023-12-22T10:17:39;96139.72;;;7.99;71.29
76611;BME280;65503;48.534;9.062;2023-12-22T10:20:07;96133.38;;;8.23;70.46
76611;BME280;65503;48.534;9.062;2023-12-22T10:22:34;96124.69;;;8.06;70.82
76611;BME280;65503;48.534;9.062;2023-12-22T10:25:01;96123.19;;;8.39;69.28
76611;BME280;65503;48.534;9.062;2023-12-22T10:27:29;96127.16;;;7.84;70.60
76611;BME280;65503;48.534;9.062;2023-12-22T10:29:56;96123.47;;;8.25;70.36
76611;BME280;65503;48.534;9.062;2023-12-22T10:32:23;96132.59;;;8.68;68.50
76611;BME280;65503;48.534;9.062;2023-12-22T10:34:52;96136.88;;;9.07;67.50
76611;BME280;65503;48.534;9.062;2023-12-22T10:37:20;96126.22;;;8.47;68.95
76611;BME280;65503;48.534;9.062;2023-12-22T10:39:52;96123.91;;;8.22;69.77
76611;BME280;65503;48.534;9.062;2023-12-22T10:42:19;96116.63;;;8.24;70.23
76611;BME280;65503;48.534;9.062;2023-12-22T10:44:46;96116.81;;;8.06;70.80
76611;BME280;65503;48.534;9.062;2023-12-22T10:47:17;96111.31;;;7.91;71.13
76611;BME280;65503;48.534;9.062;2023-12-22T10:49:45;96102.47;;;8.54;69.89
76611;BME280;65503;48.534;9.062;2023-12-22T10:52:16;96110.34;;;8.54;69.66
76611;BME280;65503;48.534;9.062;2023-12-22T10:54:44;96098.28;;;8.69;69.14
76611;BME280;65503;48.534;9.062;2023-12-22T10:57:11;96106.16;;;8.24;69.74
76611;BME280;65503;48.534;9.062;2023-12-22T10:59:45;96095.66;;;7.68;72.51
76611;BME280;65503;48.534;9.062;2023-12-22T11:02:18;96095.66;;;8.24;71.04
76611;BME280;65503;48.534;9.062;2023-12-22T11:04:56;96089.56;;;7.91;72.61
76611;BME280;65503;48.534;9.062;2023-12-22T11:07:24;96091.81;;;8.15;72.24
76611;BME280;65503;48.534;9.062;2023-12-22T11:09:56;96090.72;;;8.11;72.63
76611;BME280;65503;48.534;9.062;2023-12-22T11:12:23;96077.66;;;8.45;71.43
76611;BME280;65503;48.534;9.062;2023-12-22T11:14:50;96076.06;;;7.99;73.72
76611;BME280;65503;48.534;9.062;2023-12-22T11:17:21;96082.38;;;8.43;72.78
76611;BME280;65503;48.534;9.062;2023-12-22T11:19:55;96072.38;;;7.83;74.31
76611;BME280;65503;48.534;9.062;2023-12-22T11:22:23;96078.19;;;7.57;76.52
76611;BME280;65503;48.534;9.062;2023-12-22T11:24:51;96076.44;;;7.62;76.14
76611;BME280;65503;48.534;9.062;2023-12-22T11:27:18;96074.91;;;7.78;76.02
76611;BME280;65503;48.534;9.062;2023-12-22T11:29:49;96073.56;;;7.64;77.27
76611;BME280;65503;48.534;9.062;2023-12-22T11:32:17;96070.00;;;7.81;76.88
76611;BME280;65503;48.534;9.062;2023-12-22T11:34:46;96064.19;;;8.08;75.58
76611;BME280;65503;48.534;9.062;2023-12-22T11:37:14;96058.09;;;7.74;76.71
76611;BME280;65503;48.534;9.062;2023-12-22T11:39:45;96056.75;;;7.60;77.72
76611;BME280;65503;48.534;9.062;2023-12-22T11:42:19;96040.13;;;7.66;77.40
76611;BME280;65503;48.534;9.062;2023-12-22T11:44:47;96029.19;;;7.69;77.57
76611;BME280;65503;48.534;9.062;2023-12-22T11:47:14;96032.44;;;7.76;77.14
76611;BME280;65503;48.534;9.062;2023-12-22T11:49:41;96015.84;;;7.70;76.90
76611;BME280;65503;48.534;9.062;2023-12-22T11:54:56;96003.56;;;7.42;78.84
76611;BME280;65503;48.534;9.062;2023-12-22T12:00:06;95985.47;;;7.41;79.50
76611;BME280;65503;48.534;9.062;2023-12-22T12:02:35;95975.66;;;7.48;79.13
76611;BME280;65503;48.534;9.062;2023-12-22T12:05:02;95979.88;;;7.09;80.29
76611;BME280;65503;48.534;9.062;2023-12-22T12:07:44;95982.75;;;7.64;78.67
76611;BME280;65503;48.534;9.062;2023-12-22T12:10:13;95979.34;;;7.80;77.47
76611;BME280;65503;48.534;9.062;2023-12-22T12:12:40;95978.50;;;7.46;79.95
76611;BME280;65503;48.534;9.062;2023-12-22T12:15:08;95971.91;;;7.72;77.64
76611;BME280;65503;48.534;9.062;2023-12-22T12:17:39;95962.34;;;7.50;79.00
76611;BME280;65503;48.534;9.062;2023-12-22T12:20:07;95964.75;;;7.68;78.71
76611;BME280;65503;48.534;9.062;2023-12-22T12:22:34;95960.00;;;7.98;78.11
76611;BME280;65503;48.534;9.062;2023-12-22T12:25:01;95953.63;;;7.61;78.76
76611;BME280;65503;48.534;9.062;2023-12-22T12:27:27;95940.91;;;8.14;77.58
76611;BME280;65503;48.534;9.062;2023-12-22T12:29:54;95935.81;;;8.24;76.84
76611;BME280;65503;48.534;9.062;2023-12-22T12:32:23;95926.84;;;7.87;77.84
76611;BME280;65503;48.534;9.062;2023-12-22T12:34:49;95922.16;;;7.89;78.54
76611;BME280;65503;48.534;9.062;2023-12-22T12:37:16;95907.41;;;7.21;80.76
76611;BME280;65503;48.534;9.062;2023-12-22T12:39:44;95908.78;;;7.12;81.30
76611;BME280;65503;48.534;9.062;2023-12-22T12:42:15;95895.41;;;7.54;79.54
76611;BME280;65503;48.534;9.062;2023-12-22T12:44:42;95893.94;;;7.01;81.51
76611;BME280;65503;48.534;9.062;2023-12-22T12:47:15;95893.94;;;7.29;80.92
76611;BME280;65503;48.534;9.062;2023-12-22T12:49:42;95897.47;;;7.52;80.70
76611;BME280;65503;48.534;9.062;2023-12-22T12:52:13;95896.69;;;7.68;79.37
76611;BME280;65503;48.534;9.062;2023-12-22T12:54:40;95888.25;;;7.99;79.23
76611;BME280;65503;48.534;9.062;2023-12-22T12:57:06;95898.28;;;7.69;79.11
76611;BME280;65503;48.534;9.062;2023-12-22T12:59:33;95900.34;;;7.83;79.02
76611;BME280;65503;48.534;9.062;2023-12-22T13:02:00;95891.44;;;7.34;80.41
76611;BME280;65503;48.534;9.062;2023-12-22T13:04:36;95889.06;;;7.83;79.63
76611;BME280;65503;48.534;9.062;2023-12-22T13:07:04;95888.28;;;7.82;79.80
76611;BME280;65503;48.534;9.062;2023-12-22T13:09:34;95893.81;;;7.69;80.11
76611;BME280;65503;48.534;9.062;2023-12-22T13:12:00;95892.03;;;7.41;81.33
76611;BME280;65503;48.534;9.062;2023-12-22T13:14:27;95899.16;;;7.74;80.32
76611;BME280;65503;48.534;9.062;2023-12-22T13:16:55;95904.63;;;7.73;80.40